This is the latest recevied weather packets stored in our database for station/object WP4PW. If no packets are shown the sender has not sent any weather packets the latest 10 day(s).
| Time | Temp. | Humidity | Pressure | Rain* | Wind** | Luminosity | Snow |
|---|---|---|---|---|---|---|---|
| 1778165191 | 30° C | 77% | 1022 hPa | 0 mm | - | 742 W/m² | - |
| 1778164890 | 29.44° C | 78% | 1022 hPa | 0 mm | - | 733 W/m² | - |
| 1778164586 | 30° C | 78% | 1022 hPa | 0 mm | - | 724 W/m² | - |
| 1778164284 | 30° C | 77% | 1022.2 hPa | 0 mm | - | 713 W/m² | - |
| 1778163979 | 29.44° C | 79% | 1022.4 hPa | 0 mm | - | 703 W/m² | - |
| 1778163676 | 30° C | 79% | 1022.3 hPa | 0 mm | - | 694 W/m² | - |
| 1778163372 | 29.44° C | 80% | 1022.5 hPa | 0 mm | - | 688 W/m² | - |
| 1778163069 | 29.44° C | 79% | 1022.4 hPa | 0 mm | - | 690 W/m² | - |
| 1778162765 | 30.56° C | 77% | 1022.3 hPa | 0 mm | - | 687 W/m² | - |
| 1778162463 | 29.44° C | 79% | 1022.5 hPa | 0 mm | - | 255 W/m² | - |
| 1778162160 | 29.44° C | 78% | 1022.6 hPa | 0 mm | - | 680 W/m² | - |
| 1778161852 | 29.44° C | 78% | 1022.4 hPa | 0 mm | - | 176 W/m² | - |
| 1778161548 | 30° C | 77% | 1022.4 hPa | 0 mm | - | 624 W/m² | - |
| 1778161243 | 30° C | 77% | 1022.2 hPa | 0 mm | - | 586 W/m² | - |
| 1778160940 | 30° C | 77% | 1022.2 hPa | 0 mm | - | 575 W/m² | - |
| 1778160638 | 29.44° C | 76% | 1022.1 hPa | 0 mm | - | 564 W/m² | - |
| 1778160334 | 30° C | 76% | 1022.1 hPa | 0 mm | - | 549 W/m² | - |
| 1778160031 | 29.44° C | 79% | 1021.8 hPa | 0 mm | - | 546 W/m² | - |
| 1778159728 | 29.44° C | 78% | 1021.9 hPa | 0 mm | - | 545 W/m² | - |
| 1778159425 | 28.89° C | 80% | 1022 hPa | 0 mm | - | 586 W/m² | - |
| 1778159122 | 29.44° C | 79% | 1021.9 hPa | 0 mm | - | 517 W/m² | - |
| 1778158820 | 29.44° C | 80% | 1021.8 hPa | 0 mm | - | 504 W/m² | - |
| 1778158519 | 28.89° C | 80% | 1021.8 hPa | 0 mm | - | 517 W/m² | - |
| 1778158215 | 29.44° C | 81% | 1021.8 hPa | 0 mm | - | 196 W/m² | - |
| 1778157912 | 29.44° C | 80% | 1021.7 hPa | 0 mm | - | 486 W/m² | - |
* Rain latest hour (hover to see other rain measurements)
** Current wind speed in m/s (hover to see current wind gust speed)